Maria Noelle — WDD9564 — position and weather

sailwx.info

Track history (hours):
 
Tides and Currents Weather Stations Pressure Air Temp Water Temp Dewpoint Dewpoint Depression Visibility Wind Speed Wind Dir Waves Ship Positions

Maria Noelle

Owner: MUROS INC, POINT PLEASANT, NJ. More information available from US FCC via Universal Licensing System and Coast Guard Vessel Documentation Center.

Last reported at 2015-Mar-03 21:33 UTC. Time now 2015-Mar-05 06:35 UTC.
Position N 39°36' W 072°23'.

Length 26 m.

Type: Fishing. MMSI: 367313170.

Date/timePositionNaut miles runAvg speedWind from/ knotsBaromVisibWave heightAir tempDewpointWater temp
2015-Mar-03 21:33N 39°36' W 072°23'20 0.5
2015-Mar-02 00:23N 39°54' W 072°37'7 1.0
2015-Mar-01 17:06N 39°54' W 072°27'1 1.3
2015-Mar-01 16:33N 39°54' W 072°27'3 3.1
2015-Mar-01 15:33N 39°57' W 072°28'4 3.6
2015-Mar-01 14:33N 39°53' W 072°28'1 0.9
2015-Mar-01 13:33N 39°52' W 072°28'1 0.8
2015-Mar-01 12:20N 39°51' W 072°28'1 1.4
2015-Mar-01 11:24N 39°53' W 072°27'  
2015-Feb-26 05:04N 40°04' W 073°11'12 7.5
2015-Feb-26 03:33N 40°03' W 072°56'9 7.2
2015-Feb-26 02:15N 40°03' W 072°44'  
2015-Feb-23 11:23N 40°05' W 073°60'7 7.9
2015-Feb-23 10:28N 40°03' W 073°51'7 7.6
2015-Feb-23 09:31N 40°01' W 073°42'36 7.2
2015-Feb-23 04:32N 39°48' W 072°58'8 7.9
2015-Feb-23 03:33N 39°45' W 072°48'  
Track history (hours):
 
Tides and Currents Weather Stations Pressure Air Temp Water Temp Dewpoint Dewpoint Depression Visibility Wind Speed Wind Dir Waves Ship Positions

Maria Noelle

Owner: MUROS INC, POINT PLEASANT, NJ. More information available from US FCC via Universal Licensing System and Coast Guard Vessel Documentation Center.

Last reported at 2015-Mar-03 21:33 UTC. Time now 2015-Mar-05 06:35 UTC.
Position N 39°36' W 072°23'.

Length 26 m.

Type: Fishing. MMSI: 367313170.

Date/timePositionNaut miles runAvg speedWind from/ knotsBaromVisibWave heightAir tempDewpointWater temp
2015-Mar-03 21:33N 39°36' W 072°23'20 0.5
2015-Mar-02 00:23N 39°54' W 072°37'7 1.0
2015-Mar-01 17:06N 39°54' W 072°27'1 1.3
2015-Mar-01 16:33N 39°54' W 072°27'3 3.1
2015-Mar-01 15:33N 39°57' W 072°28'4 3.6
2015-Mar-01 14:33N 39°53' W 072°28'1 0.9
2015-Mar-01 13:33N 39°52' W 072°28'1 0.8
2015-Mar-01 12:20N 39°51' W 072°28'1 1.4
2015-Mar-01 11:24N 39°53' W 072°27'  
2015-Feb-26 05:04N 40°04' W 073°11'12 7.5
2015-Feb-26 03:33N 40°03' W 072°56'9 7.2
2015-Feb-26 02:15N 40°03' W 072°44'  
2015-Feb-23 11:23N 40°05' W 073°60'7 7.9
2015-Feb-23 10:28N 40°03' W 073°51'7 7.6
2015-Feb-23 09:31N 40°01' W 073°42'36 7.2
2015-Feb-23 04:32N 39°48' W 072°58'8 7.9
2015-Feb-23 03:33N 39°45' W 072°48'  

Dump ship's entire track history